Time;durP1;ratioP1;P1;durP2;ratioP2;P2;SDS_P1;SDS_P2;PMS_P1;PMS_P2;Temp;Humidity;BMP_temperature;BMP_pressure;BME280_temperature;BME280_humidity;BME280_pressure;Samples;Min_cycle;Max_cycle;Signal;HPM_P1;HPM_P2
2023/01/13 00:00:59;;;;;;;0.20;0.00;;;14.20;57.00;;;;;;4936012;28;20051;-51
2023/01/13 00:03:28;;;;;;;0.10;0.00;;;14.20;57.00;;;;;;4942180;28;20407;-49
2023/01/13 00:05:58;;;;;;;0.17;0.00;;;14.20;57.00;;;;;;4941169;28;20059;-46
2023/01/13 00:08:25;;;;;;;0.00;0.00;;;14.20;57.00;;;;;;4943355;28;21302;-49
2023/01/13 00:10:52;;;;;;;1.55;0.10;;;14.20;57.00;;;;;;4933834;28;20066;-50
2023/01/13 00:13:25;;;;;;;0.30;0.10;;;14.20;57.00;;;;;;4940224;28;20055;-48
2023/01/13 00:15:56;;;;;;;1.27;0.00;;;14.20;56.90;;;;;;4943416;28;20074;-50
2023/01/13 00:18:23;;;;;;;0.20;0.00;;;14.20;56.90;;;;;;4938315;28;20514;-47
2023/01/13 00:20:59;;;;;;;0.00;0.00;;;14.20;57.00;;;;;;4939106;28;20059;-48
2023/01/13 00:23:27;;;;;;;0.22;0.10;;;14.20;57.00;;;;;;4933187;28;20048;-48
2023/01/13 00:25:55;;;;;;;0.00;0.00;;;14.20;57.00;;;;;;4943892;28;20070;-47
2023/01/13 00:28:23;;;;;;;1.90;1.05;;;14.20;57.00;;;;;;4937986;28;20078;-49
2023/01/13 00:30:50;;;;;;;0.50;0.10;;;14.20;57.00;;;;;;4939488;28;20067;-48
2023/01/13 00:33:17;;;;;;;0.10;0.10;;;14.20;57.10;;;;;;4938114;28;20051;-49
2023/01/13 00:35:44;;;;;;;0.00;0.00;;;14.20;57.10;;;;;;4935333;28;21257;-48
2023/01/13 00:38:13;;;;;;;0.00;0.00;;;14.20;57.20;;;;;;4941568;28;20055;-48
2023/01/13 00:40:40;;;;;;;0.30;0.00;;;14.20;57.20;;;;;;4935090;28;20055;-49
2023/01/13 00:43:22;;;;;;;0.63;0.00;;;14.20;57.20;;;;;;4934203;28;20266;-49
2023/01/13 00:45:50;;;;;;;0.00;0.00;;;14.20;57.20;;;;;;4942567;28;20070;-48
2023/01/13 00:48:17;;;;;;;0.60;0.17;;;14.20;57.20;;;;;;4935094;28;20069;-55
2023/01/13 00:50:45;;;;;;;0.50;0.00;;;14.20;57.20;;;;;;4941067;28;20055;-46
2023/01/13 00:53:15;;;;;;;0.08;0.00;;;14.20;57.10;;;;;;4941036;28;20070;-45
2023/01/13 00:55:42;;;;;;;0.20;0.03;;;14.20;57.10;;;;;;4932788;28;20506;-46
2023/01/13 00:58:09;;;;;;;0.28;0.00;;;14.20;57.20;;;;;;4935235;28;20066;-47
2023/01/13 01:00:36;;;;;;;0.50;0.00;;;14.20;57.20;;;;;;4973404;28;20497;-45
2023/01/13 01:03:07;;;;;;;0.32;0.10;;;14.20;57.10;;;;;;4941948;28;20480;-45
2023/01/13 01:05:35;;;;;;;0.17;0.00;;;14.20;57.10;;;;;;4941811;28;20403;-47
2023/01/13 01:08:02;;;;;;;0.32;0.08;;;14.20;57.10;;;;;;4934313;28;20058;-48
2023/01/13 01:10:31;;;;;;;1.52;0.10;;;14.30;57.10;;;;;;4937024;28;20048;-45
2023/01/13 01:12:58;;;;;;;1.75;0.05;;;14.20;57.10;;;;;;4939993;28;20075;-53
2023/01/13 01:15:25;;;;;;;0.10;0.08;;;14.20;57.00;;;;;;4941738;28;20062;-48
2023/01/13 01:17:52;;;;;;;2.33;0.00;;;14.20;57.00;;;;;;4932581;28;20066;-49
2023/01/13 01:20:20;;;;;;;1.08;0.10;;;14.20;57.10;;;;;;4935978;28;20048;-45
2023/01/13 01:22:47;;;;;;;0.10;0.00;;;14.20;57.10;;;;;;4936325;28;20381;-47
2023/01/13 01:25:14;;;;;;;0.68;0.05;;;14.20;57.20;;;;;;4940327;28;20059;-49
2023/01/13 01:27:43;;;;;;;0.00;0.00;;;14.20;57.20;;;;;;4940519;28;20047;-52
2023/01/13 01:30:11;;;;;;;0.05;0.00;;;14.20;57.20;;;;;;4944588;28;20512;-47
2023/01/13 01:32:39;;;;;;;0.00;0.00;;;14.20;57.20;;;;;;4943795;28;20055;-49
2023/01/13 01:35:07;;;;;;;0.55;0.00;;;14.20;57.30;;;;;;4940157;28;20063;-45
2023/01/13 01:37:34;;;;;;;1.17;0.00;;;14.20;57.30;;;;;;4942014;28;20411;-49
2023/01/13 01:40:01;;;;;;;0.20;0.00;;;14.20;57.30;;;;;;4939752;28;20055;-52
2023/01/13 01:45:22;;;;;;;1.45;0.10;;;14.20;57.30;;;;;;4878068;28;20056;-49
2023/01/13 01:47:53;;;;;;;0.10;0.03;;;14.20;57.60;;;;;;4943537;28;20055;-47
2023/01/13 01:50:20;;;;;;;1.95;0.10;;;14.20;58.10;;;;;;4947103;28;20067;-46
2023/01/13 01:52:52;;;;;;;2.47;0.20;;;14.20;58.10;;;;;;4946170;28;20051;-54
2023/01/13 01:55:22;;;;;;;4.05;0.40;;;14.10;57.70;;;;;;4943009;28;20051;-50
2023/01/13 01:57:54;;;;;;;2.65;0.30;;;14.00;57.00;;;;;;4944304;28;20047;-48
2023/01/13 02:00:23;;;;;;;0.50;0.10;;;13.90;57.00;;;;;;4943661;28;20055;-50
2023/01/13 02:02:51;;;;;;;1.52;0.20;;;13.70;57.10;;;;;;4944210;28;20055;-48
2023/01/13 02:05:19;;;;;;;1.25;0.10;;;13.60;57.10;;;;;;4944206;28;20403;-48
2023/01/13 02:07:49;;;;;;;1.52;0.20;;;13.50;57.40;;;;;;4943701;28;20527;-51
2023/01/13 02:10:20;;;;;;;0.40;0.17;;;13.40;57.70;;;;;;4944131;28;20416;-46
2023/01/13 02:12:48;;;;;;;1.13;0.10;;;13.40;58.20;;;;;;4944852;28;20122;-50
2023/01/13 02:15:18;;;;;;;0.30;0.10;;;13.30;58.50;;;;;;4944940;28;20063;-50
2023/01/13 02:18:01;;;;;;;1.40;0.20;;;13.20;58.70;;;;;;4945189;28;20589;-47
2023/01/13 02:20:58;;;;;;;1.10;0.13;;;13.20;58.90;;;;;;4943198;28;20495;-49
2023/01/13 02:27:16;;;;;;;1.63;0.28;;;13.10;58.90;;;;;;4946779;28;20058;-47
2023/01/13 02:33:09;;;;;;;1.13;0.13;;;13.10;58.70;;;;;;4950973;28;20064;-50
2023/01/13 02:35:43;;;;;;;1.65;0.20;;;13.10;58.90;;;;;;4935877;28;20486;-48
2023/01/13 02:38:13;;;;;;;1.83;0.30;;;13.10;58.80;;;;;;4942660;28;20060;-50
2023/01/13 02:40:47;;;;;;;0.80;0.20;;;13.10;58.80;;;;;;4942588;28;20047;-47
2023/01/13 02:46:13;;;;;;;1.60;0.20;;;13.10;58.80;;;;;;4942077;28;20067;-50
2023/01/13 02:48:44;;;;;;;2.35;0.50;;;13.10;58.80;;;;;;4944873;28;20060;-48
2023/01/13 02:51:16;;;;;;;1.40;0.30;;;13.10;58.70;;;;;;4937048;28;20076;-50
2023/01/13 02:53:47;;;;;;;1.65;0.20;;;13.10;58.70;;;;;;4940231;28;20056;-50
2023/01/13 02:56:16;;;;;;;0.52;0.10;;;13.10;58.60;;;;;;4940284;28;20059;-48
2023/01/13 02:58:46;;;;;;;1.50;0.30;;;13.10;59.10;;;;;;4935222;28;20048;-48
2023/01/13 03:01:15;;;;;;;1.55;0.20;;;13.10;58.60;;;;;;4942512;28;20067;-50
2023/01/13 03:03:42;;;;;;;2.03;0.20;;;13.10;58.50;;;;;;4936877;28;20579;-48
2023/01/13 03:06:25;;;;;;;1.40;0.22;;;13.10;58.50;;;;;;4937033;28;20066;-50
2023/01/13 03:08:58;;;;;;;1.77;0.10;;;13.10;58.30;;;;;;4936031;28;20415;-47
2023/01/13 03:11:33;;;;;;;1.48;0.30;;;13.10;58.10;;;;;;4944024;28;20066;-49
2023/01/13 03:14:18;;;;;;;1.95;0.63;;;13.00;58.00;;;;;;4935969;28;20055;-46
2023/01/13 03:17:21;;;;;;;0.60;0.20;;;13.00;57.90;;;;;;4943228;28;20507;-47
2023/01/13 03:20:03;;;;;;;1.33;0.20;;;13.00;57.70;;;;;;4924156;28;20059;-47
2023/01/13 03:22:37;;;;;;;0.63;0.20;;;13.00;57.60;;;;;;4937420;28;20411;-46
2023/01/13 03:25:11;;;;;;;0.75;0.20;;;13.00;57.90;;;;;;4937006;28;20407;-47
2023/01/13 03:27:46;;;;;;;1.05;0.20;;;13.00;57.30;;;;;;5019435;28;20049;-49
2023/01/13 03:30:20;;;;;;;0.52;0.30;;;13.00;57.00;;;;;;5019109;28;21160;-46
2023/01/13 03:32:51;;;;;;;1.10;0.47;;;12.90;56.80;;;;;;5022913;28;20080;-45
2023/01/13 03:35:23;;;;;;;4.47;0.20;;;12.90;56.90;;;;;;5021495;28;20500;-45
2023/01/13 03:37:58;;;;;;;1.95;0.30;;;12.90;56.90;;;;;;5024147;28;20068;-48
2023/01/13 03:40:29;;;;;;;0.20;0.10;;;12.90;56.70;;;;;;5020931;28;20448;-46
2023/01/13 03:45:50;;;;;;;1.70;0.25;;;12.80;56.70;;;;;;5026675;28;20523;-45
2023/01/13 03:48:22;;;;;;;1.25;0.20;;;12.90;56.70;;;;;;5020711;28;20053;-45
2023/01/13 03:50:51;;;;;;;1.67;0.38;;;12.80;56.60;;;;;;5022015;28;20050;-47
2023/01/13 03:53:23;;;;;;;3.10;0.30;;;12.80;56.50;;;;;;5022322;28;20053;-45
2023/01/13 03:55:53;;;;;;;5.18;0.70;;;12.80;56.50;;;;;;5022008;28;20054;-48
2023/01/13 03:58:26;;;;;;;1.05;0.30;;;12.80;56.40;;;;;;5020000;28;20417;-45
2023/01/13 04:00:57;;;;;;;3.85;0.68;;;12.70;56.20;;;;;;5019081;28;20409;-49
2023/01/13 04:03:31;;;;;;;3.47;0.40;;;12.70;56.00;;;;;;5023034;28;20563;-46
2023/01/13 04:06:05;;;;;;;1.77;0.30;;;12.70;56.00;;;;;;5022602;28;20061;-47
2023/01/13 04:08:34;;;;;;;3.38;1.02;;;12.70;55.80;;;;;;5020977;28;20061;-47
2023/01/13 04:11:06;;;;;;;3.85;0.80;;;12.70;55.80;;;;;;5018271;28;20080;-45
2023/01/13 04:13:38;;;;;;;4.20;0.45;;;12.70;55.60;;;;;;5020022;28;20120;-48
2023/01/13 04:16:07;;;;;;;2.58;0.60;;;12.60;55.30;;;;;;5020176;28;20058;-48
2023/01/13 04:18:38;;;;;;;5.00;1.00;;;12.60;55.20;;;;;;5022477;28;20053;-50
2023/01/13 04:21:06;;;;;;;4.05;0.80;;;12.60;55.10;;;;;;5022327;28;20053;-46
2023/01/13 04:23:33;;;;;;;2.47;0.60;;;12.60;55.30;;;;;;5017360;28;20046;-48
2023/01/13 04:26:01;;;;;;;10.52;1.02;;;12.60;55.30;;;;;;5012888;28;20057;-46
2023/01/13 04:28:28;;;;;;;7.82;1.20;;;12.60;55.50;;;;;;5020579;28;20116;-49
2023/01/13 04:30:55;;;;;;;5.45;1.30;;;12.60;55.30;;;;;;5020770;28;20057;-50
2023/01/13 04:33:22;;;;;;;6.28;1.00;;;12.60;55.30;;;;;;5020288;28;20426;-44
2023/01/13 04:35:52;;;;;;;6.07;1.10;;;12.60;55.20;;;;;;5022162;28;20060;-48
2023/01/13 04:38:21;;;;;;;6.32;0.77;;;12.50;54.90;;;;;;5020502;28;20052;-49
2023/01/13 04:40:48;;;;;;;9.02;1.17;;;12.60;54.90;;;;;;5022068;28;20489;-48
2023/01/13 04:43:16;;;;;;;6.68;0.90;;;12.50;54.80;;;;;;5020561;28;20064;-49
2023/01/13 04:45:43;;;;;;;3.58;0.90;;;12.50;54.80;;;;;;5018785;28;20045;-49
2023/01/13 04:48:11;;;;;;;6.57;1.08;;;12.50;54.80;;;;;;5022705;28;20052;-45
2023/01/13 04:50:38;;;;;;;7.07;1.10;;;12.50;54.80;;;;;;5021128;28;20061;-48
2023/01/13 04:53:07;;;;;;;4.25;0.85;;;12.50;54.70;;;;;;5020030;28;20053;-45
2023/01/13 04:55:34;;;;;;;6.38;0.98;;;12.50;54.70;;;;;;5017498;28;20524;-47
2023/01/13 04:58:03;;;;;;;6.03;1.00;;;12.50;54.60;;;;;;5020394;28;20069;-47
2023/01/13 05:00:30;;;;;;;7.25;1.23;;;12.50;54.50;;;;;;5018832;28;20054;-47
2023/01/13 05:02:58;;;;;;;11.00;1.30;;;12.50;54.40;;;;;;5021871;28;20054;-48
2023/01/13 05:05:26;;;;;;;5.72;1.38;;;12.40;54.60;;;;;;5020592;28;20049;-47
2023/01/13 05:07:53;;;;;;;7.53;1.00;;;12.40;54.40;;;;;;5020023;28;20057;-45
2023/01/13 05:10:22;;;;;;;8.57;1.40;;;12.40;54.40;;;;;;5020921;28;20057;-45
2023/01/13 05:18:18;;;;;;;;;;;12.40;54.30;;;;;;5023287;28;20436;-49
2023/01/13 05:20:46;;;;;;;9.45;1.40;;;12.40;54.50;;;;;;5021094;28;19932;-48
2023/01/13 05:25:59;;;;;;;9.18;1.58;;;12.30;53.90;;;;;;5009839;28;20419;-46
2023/01/13 05:28:30;;;;;;;6.15;1.23;;;12.30;53.60;;;;;;4940943;28;20411;-46
2023/01/13 05:30:58;;;;;;;6.90;1.00;;;12.30;53.60;;;;;;4944573;28;20412;-48
2023/01/13 05:33:25;;;;;;;4.80;0.90;;;12.30;53.60;;;;;;4937948;28;20063;-47
2023/01/13 05:35:52;;;;;;;7.53;1.23;;;12.30;53.40;;;;;;4937077;28;20059;-49
2023/01/13 05:38:19;;;;;;;8.55;1.35;;;12.20;53.40;;;;;;4941290;28;20431;-50
2023/01/13 05:43:33;;;;;;;6.03;1.45;;;12.20;53.30;;;;;;4949752;28;20058;-46
2023/01/13 05:46:02;;;;;;;6.72;1.20;;;12.20;53.30;;;;;;4943534;28;20418;-49
2023/01/13 05:48:32;;;;;;;11.63;1.58;;;12.10;53.30;;;;;;4936144;28;20058;-46
2023/01/13 05:50:59;;;;;;;10.50;1.52;;;12.10;53.30;;;;;;4945993;28;21141;-50
2023/01/13 05:53:27;;;;;;;5.95;1.38;;;12.10;53.40;;;;;;4944095;28;20066;-48
2023/01/13 05:55:54;;;;;;;8.05;1.20;;;12.10;53.30;;;;;;4942496;28;20055;-46
2023/01/13 05:58:23;;;;;;;3.40;0.95;;;12.10;53.20;;;;;;4938615;28;20055;-49
2023/01/13 06:00:53;;;;;;;6.68;1.13;;;12.10;53.20;;;;;;4940542;28;20086;-50
2023/01/13 06:03:20;;;;;;;8.65;1.23;;;12.10;53.00;;;;;;4941585;28;20063;-50
2023/01/13 06:05:49;;;;;;;6.80;1.10;;;12.10;53.20;;;;;;4938417;28;20055;-44
2023/01/13 06:08:17;;;;;;;5.03;1.15;;;12.00;53.20;;;;;;4943353;28;20055;-46
2023/01/13 06:10:45;;;;;;;12.75;1.73;;;12.10;53.20;;;;;;4944641;28;20590;-47
2023/01/13 06:13:12;;;;;;;9.80;1.42;;;12.10;53.20;;;;;;4937166;28;20059;-47
2023/01/13 06:15:39;;;;;;;8.63;1.40;;;12.10;53.20;;;;;;4944450;28;20427;-48
2023/01/13 06:18:08;;;;;;;5.15;1.20;;;12.00;53.10;;;;;;4945410;28;20066;-50
2023/01/13 06:20:35;;;;;;;7.22;1.42;;;12.00;53.20;;;;;;4944137;28;20113;-48
2023/01/13 06:23:03;;;;;;;6.18;1.27;;;12.00;53.30;;;;;;4943910;28;20067;-49
2023/01/13 06:25:39;;;;;;;7.50;1.20;;;12.00;53.30;;;;;;4942412;28;20055;-46
2023/01/13 06:28:06;;;;;;;7.65;1.55;;;12.10;53.40;;;;;;4942393;28;20051;-47
2023/01/13 06:30:38;;;;;;;7.57;1.20;;;12.00;53.40;;;;;;4944346;28;20058;-49
2023/01/13 06:33:12;;;;;;;7.97;0.93;;;12.10;53.30;;;;;;4946458;28;20057;-49
2023/01/13 06:35:44;;;;;;;3.15;1.00;;;12.10;53.30;;;;;;4934354;28;20055;-48
2023/01/13 06:38:14;;;;;;;5.97;0.90;;;12.10;53.30;;;;;;4945473;28;20444;-49
2023/01/13 06:40:43;;;;;;;3.03;1.02;;;12.10;53.20;;;;;;4944928;28;20047;-48
2023/01/13 06:43:15;;;;;;;8.82;0.75;;;12.10;53.30;;;;;;4945032;28;20059;-46
2023/01/13 06:45:45;;;;;;;8.63;1.70;;;12.10;53.30;;;;;;4943464;28;20059;-47
2023/01/13 06:48:14;;;;;;;60.67;31.95;;;12.10;53.20;;;;;;4936020;28;20518;-48
2023/01/13 06:50:42;;;;;;;26.63;13.95;;;12.10;53.80;;;;;;4923368;28;20055;-46
2023/01/13 06:53:09;;;;;;;22.80;15.38;;;12.10;53.40;;;;;;4943944;28;20059;-49
2023/01/13 06:55:37;;;;;;;17.58;7.07;;;12.10;53.40;;;;;;4941955;28;20419;-48
2023/01/13 06:58:04;;;;;;;6.95;2.95;;;12.10;53.40;;;;;;4939413;28;20058;-47
2023/01/13 07:00:34;;;;;;;9.43;3.72;;;12.00;53.40;;;;;;4944296;28;20098;-47
2023/01/13 07:03:09;;;;;;;10.63;4.32;;;12.00;53.40;;;;;;4939732;28;20059;-50
2023/01/13 07:05:38;;;;;;;10.68;2.97;;;12.00;53.50;;;;;;4943555;28;20403;-46
2023/01/13 07:08:06;;;;;;;8.45;2.05;;;12.00;53.50;;;;;;4943576;28;20410;-50
2023/01/13 07:10:35;;;;;;;5.68;1.42;;;12.00;53.50;;;;;;4939620;28;20059;-46
2023/01/13 07:15:56;;;;;;;7.68;1.73;;;12.00;53.60;;;;;;4946135;28;20419;-47
2023/01/13 07:18:26;;;;;;;12.75;1.80;;;12.00;53.80;;;;;;4942822;28;20062;-49
2023/01/13 07:20:55;;;;;;;8.50;1.98;;;12.00;53.90;;;;;;4918527;28;20545;-45
2023/01/13 07:23:23;;;;;;;9.07;1.60;;;12.00;53.90;;;;;;4928405;28;20061;-51
2023/01/13 07:25:50;;;;;;;6.68;1.73;;;12.00;53.80;;;;;;4942957;28;20066;-45
2023/01/13 07:28:18;;;;;;;7.72;2.38;;;12.00;53.90;;;;;;4932445;28;20070;-48
2023/01/13 07:30:45;;;;;;;8.48;2.00;;;12.00;54.00;;;;;;4943786;28;20531;-47
2023/01/13 07:33:12;;;;;;;10.10;1.60;;;12.00;54.10;;;;;;4942963;28;20051;-46
2023/01/13 07:35:39;;;;;;;9.43;1.75;;;12.00;54.20;;;;;;4941382;28;20046;-49
2023/01/13 07:38:08;;;;;;;7.90;1.80;;;12.00;54.20;;;;;;4941780;28;20050;-49
2023/01/13 07:40:35;;;;;;;5.60;1.40;;;12.00;54.10;;;;;;4939750;28;20062;-50
2023/01/13 07:45:47;;;;;;;7.47;1.98;;;12.00;54.30;;;;;;4948225;28;20537;-47
2023/01/13 07:48:14;;;;;;;10.10;3.03;;;12.00;54.30;;;;;;4944567;28;20059;-50
2023/01/13 07:50:42;;;;;;;8.95;3.08;;;12.10;54.30;;;;;;4944779;28;20418;-49
2023/01/13 07:53:10;;;;;;;8.50;1.67;;;12.10;54.30;;;;;;4935415;28;20060;-47
2023/01/13 07:55:42;;;;;;;12.43;2.80;;;12.10;54.30;;;;;;4939253;28;20062;-46
2023/01/13 07:58:09;;;;;;;5.40;2.50;;;12.10;54.30;;;;;;4942409;28;20418;-46
2023/01/13 08:00:37;;;;;;;10.68;4.07;;;12.10;54.20;;;;;;4932049;28;20056;-48
2023/01/13 08:03:05;;;;;;;10.77;4.30;;;12.10;54.10;;;;;;4936803;28;20057;-46
2023/01/13 08:05:34;;;;;;;4.78;1.73;;;12.10;54.20;;;;;;4940073;28;20519;-50
2023/01/13 08:08:01;;;;;;;8.32;1.48;;;12.10;54.50;;;;;;4941681;28;20054;-48
2023/01/13 08:10:30;;;;;;;7.30;1.77;;;12.10;54.60;;;;;;4928194;28;20063;-50
2023/01/13 08:15:42;;;;;;;5.10;1.30;;;12.10;54.50;;;;;;4937660;28;20058;-47
2023/01/13 08:18:09;;;;;;;9.00;1.55;;;12.10;54.50;;;;;;4935469;28;20062;-45
2023/01/13 08:20:37;;;;;;;5.47;1.10;;;12.00;54.50;;;;;;4941343;28;20051;-46
2023/01/13 08:23:04;;;;;;;5.93;0.80;;;12.00;54.60;;;;;;4932405;28;20055;-44
2023/01/13 08:25:33;;;;;;;4.53;1.40;;;12.00;55.10;;;;;;4943051;28;20539;-47
2023/01/13 08:28:00;;;;;;;9.27;2.58;;;12.00;54.80;;;;;;4939439;28;20062;-45
2023/01/13 08:30:28;;;;;;;7.85;2.03;;;12.00;54.90;;;;;;4930896;28;20051;-44
2023/01/13 08:32:56;;;;;;;9.60;3.53;;;11.90;54.90;;;;;;4931848;28;20051;-48
2023/01/13 08:35:23;;;;;;;5.57;1.75;;;11.90;54.80;;;;;;4938777;28;20055;-45
2023/01/13 08:37:51;;;;;;;11.82;1.95;;;11.90;54.80;;;;;;4942457;28;20317;-48
2023/01/13 08:40:21;;;;;;;4.53;1.13;;;11.90;54.80;;;;;;4937493;28;20054;-46
2023/01/13 08:42:51;;;;;;;5.60;1.33;;;11.80;54.80;;;;;;4940269;28;20053;-48
2023/01/13 08:45:19;;;;;;;6.70;1.30;;;11.80;54.80;;;;;;4941027;28;20071;-49
2023/01/13 08:47:46;;;;;;;10.73;2.25;;;11.80;54.80;;;;;;4941605;28;20560;-50
2023/01/13 08:50:14;;;;;;;8.43;1.60;;;11.80;54.90;;;;;;4941959;28;20060;-46
2023/01/13 08:52:42;;;;;;;7.80;2.17;;;11.80;54.90;;;;;;4928644;28;20060;-48
2023/01/13 08:55:10;;;;;;;6.00;2.40;;;11.80;54.90;;;;;;4935094;28;20522;-47
2023/01/13 08:57:37;;;;;;;10.10;2.50;;;11.80;54.90;;;;;;4937062;28;20081;-45
2023/01/13 09:00:08;;;;;;;8.80;2.10;;;11.80;55.00;;;;;;4935678;28;20054;-47
2023/01/13 09:02:37;;;;;;;9.75;2.10;;;11.80;54.80;;;;;;4939295;28;20066;-48
2023/01/13 09:05:06;;;;;;;10.27;2.13;;;11.70;54.80;;;;;;4928699;28;20055;-47
2023/01/13 09:07:34;;;;;;;9.80;2.45;;;11.70;54.80;;;;;;4939107;28;20059;-45
2023/01/13 09:10:02;;;;;;;12.50;2.20;;;11.70;54.90;;;;;;4944456;28;20403;-45
2023/01/13 09:15:17;;;;;;;15.02;2.38;;;11.70;55.50;;;;;;4937284;28;20066;-46
2023/01/13 09:17:44;;;;;;;9.38;2.65;;;11.70;55.00;;;;;;4940544;28;20055;-47
2023/01/13 09:20:13;;;;;;;17.25;3.28;;;11.70;55.00;;;;;;4942208;28;20057;-49
2023/01/13 09:22:40;;;;;;;9.52;2.55;;;11.70;55.00;;;;;;4929261;28;20056;-47
2023/01/13 09:25:08;;;;;;;16.67;3.03;;;11.80;54.80;;;;;;4937965;28;20594;-44
2023/01/13 09:27:36;;;;;;;13.10;2.67;;;11.80;54.70;;;;;;4904330;28;1066949;-46
2023/01/13 09:30:03;;;;;;;12.35;2.38;;;11.80;54.70;;;;;;4940537;28;20126;-45
2023/01/13 09:32:32;;;;;;;14.30;1.73;;;11.80;54.80;;;;;;4943700;28;20062;-46
2023/01/13 09:34:58;;;;;;;10.52;2.03;;;11.80;54.70;;;;;;4938480;28;20495;-47
2023/01/13 09:37:26;;;;;;;16.67;2.45;;;11.90;54.60;;;;;;4941596;28;20051;-47
2023/01/13 09:39:53;;;;;;;16.52;2.65;;;11.90;54.60;;;;;;4970400;28;20059;-47
2023/01/13 09:45:16;;;;;;;;;;;11.90;54.30;;;;;;4940822;28;20507;-49
2023/01/13 09:47:54;;;;;;;16.77;2.45;;;12.00;54.50;;;;;;4941775;28;19933;-50
2023/01/13 09:50:29;;;;;;;14.63;2.40;;;12.00;54.30;;;;;;4943455;28;20082;-48
2023/01/13 09:52:59;;;;;;;15.13;2.28;;;12.00;54.40;;;;;;4939298;28;20061;-48
2023/01/13 09:55:32;;;;;;;17.10;2.10;;;12.00;54.00;;;;;;4941443;28;20514;-44
2023/01/13 09:58:02;;;;;;;15.05;2.25;;;12.00;53.60;;;;;;4933466;28;20063;-49
2023/01/13 10:00:38;;;;;;;9.88;2.15;;;12.00;53.50;;;;;;4938758;28;20471;-47
2023/01/13 10:03:19;;;;;;;14.02;2.42;;;12.00;53.40;;;;;;4930846;28;20059;-47
2023/01/13 10:05:55;;;;;;;12.60;1.80;;;12.00;53.40;;;;;;4940575;28;20055;-47
2023/01/13 10:08:26;;;;;;;12.55;2.55;;;12.00;53.40;;;;;;4943018;28;20066;-45
2023/01/13 10:10:56;;;;;;;13.10;2.20;;;12.00;53.10;;;;;;4941589;28;20086;-45
2023/01/13 10:13:25;;;;;;;12.90;2.33;;;12.00;53.10;;;;;;4946454;28;20082;-48
2023/01/13 10:16:02;;;;;;;10.40;1.75;;;12.10;53.30;;;;;;4940615;28;20059;-45
2023/01/13 10:18:42;;;;;;;13.30;1.85;;;12.10;53.20;;;;;;4941547;28;20051;-45
2023/01/13 10:21:24;;;;;;;15.55;2.28;;;12.10;52.70;;;;;;4943513;28;20062;-47
2023/01/13 10:24:00;;;;;;;12.57;2.17;;;12.10;53.10;;;;;;4945118;28;20073;-51
2023/01/13 10:26:41;;;;;;;10.18;1.90;;;12.20;52.90;;;;;;4942918;28;20055;-48
2023/01/13 10:29:20;;;;;;;8.90;1.58;;;12.20;52.80;;;;;;4938759;28;20051;-45
2023/01/13 10:31:47;;;;;;;13.18;2.30;;;12.20;52.60;;;;;;4938351;28;20056;-46
2023/01/13 10:34:16;;;;;;;13.98;2.10;;;12.30;52.70;;;;;;4945052;28;20396;-46
2023/01/13 10:37:04;;;;;;;11.27;1.98;;;12.30;52.60;;;;;;4938575;28;20055;-49
2023/01/13 10:39:40;;;;;;;15.80;2.17;;;12.30;52.60;;;;;;4940246;28;20526;-47
2023/01/13 10:42:14;;;;;;;10.65;1.83;;;12.30;52.10;;;;;;4940173;28;20071;-49
2023/01/13 10:44:51;;;;;;;10.70;1.50;;;12.40;52.10;;;;;;4941045;28;20059;-50
2023/01/13 10:47:25;;;;;;;14.85;2.00;;;12.40;52.10;;;;;;4938921;28;20389;-49
2023/01/13 10:50:20;;;;;;;11.07;2.15;;;12.50;52.00;;;;;;4938570;28;20063;-49
2023/01/13 10:52:58;;;;;;;;;;;12.50;51.30;;;;;;4941332;28;20055;-45
2023/01/13 10:55:28;;;;;;;11.00;1.90;;;12.50;51.80;;;;;;4942385;28;19926;-47
2023/01/13 10:57:56;;;;;;;8.85;2.28;;;12.50;51.20;;;;;;4936880;28;20507;-47
2023/01/13 11:00:28;;;;;;;17.95;2.85;;;12.50;51.10;;;;;;4977048;28;20066;-48
2023/01/13 11:03:16;;;;;;;19.92;2.13;;;12.50;51.40;;;;;;4932743;28;20055;-50
2023/01/13 11:05:53;;;;;;;15.88;2.30;;;12.50;50.70;;;;;;4974564;28;20057;-51
2023/01/13 11:08:23;;;;;;;16.75;2.50;;;12.50;50.40;;;;;;4942682;28;20082;-57
2023/01/13 11:10:52;;;;;;;16.60;2.58;;;12.50;50.90;;;;;;4939716;28;20484;-45
2023/01/13 11:13:26;;;;;;;15.07;3.10;;;12.60;50.90;;;;;;4939798;28;20071;-46
2023/01/13 11:16:00;;;;;;;18.10;2.20;;;12.60;51.10;;;;;;4941011;28;20514;-45
2023/01/13 11:18:39;;;;;;;16.00;2.85;;;12.60;50.90;;;;;;4974537;28;20055;-51
2023/01/13 11:21:16;;;;;;;10.23;2.10;;;12.60;50.80;;;;;;4943849;28;20059;-45
2023/01/13 11:23:48;;;;;;;15.68;2.22;;;12.60;50.80;;;;;;4933786;28;20062;-47
2023/01/13 11:26:21;;;;;;;11.85;2.20;;;12.60;50.80;;;;;;4963877;28;20061;-46
2023/01/13 11:28:54;;;;;;;11.65;2.22;;;12.70;50.70;;;;;;4946565;28;20535;-44
2023/01/13 11:31:27;;;;;;;10.63;2.42;;;12.70;50.30;;;;;;4941031;28;20495;-45
2023/01/13 11:33:59;;;;;;;15.82;2.55;;;12.70;50.50;;;;;;4938441;28;20055;-48
2023/01/13 11:36:33;;;;;;;14.93;2.50;;;12.70;50.30;;;;;;4941640;28;20070;-48
2023/01/13 11:39:11;;;;;;;17.35;2.40;;;12.70;50.20;;;;;;4938492;28;20342;-48
2023/01/13 11:41:43;;;;;;;14.48;2.00;;;12.70;50.10;;;;;;4934603;28;20043;-45
2023/01/13 11:44:20;;;;;;;12.63;2.08;;;12.80;50.20;;;;;;4940608;28;20467;-52
2023/01/13 11:46:49;;;;;;;17.70;2.60;;;12.80;50.10;;;;;;4933693;28;20047;-46
2023/01/13 11:49:25;;;;;;;14.55;2.33;;;12.80;50.50;;;;;;4939148;28;20519;-48
2023/01/13 11:51:59;;;;;;;11.68;2.30;;;12.80;50.60;;;;;;4936341;28;20426;-49
2023/01/13 11:54:50;;;;;;;14.65;2.55;;;12.80;50.40;;;;;;4934889;28;20059;-46
2023/01/13 11:57:36;;;;;;;12.00;2.05;;;12.80;50.60;;;;;;4941109;28;20067;-49
2023/01/13 12:00:20;;;;;;;9.70;2.00;;;12.80;50.10;;;;;;4932055;28;20059;-49
2023/01/13 12:03:01;;;;;;;17.90;2.13;;;12.80;49.80;;;;;;4946233;28;20060;-46
2023/01/13 12:05:36;;;;;;;14.88;2.72;;;12.90;50.00;;;;;;4934655;28;20047;-46
2023/01/13 12:08:17;;;;;;;10.52;2.20;;;12.90;50.00;;;;;;4933052;28;20389;-54
2023/01/13 12:10:59;;;;;;;13.73;2.00;;;12.90;50.00;;;;;;4938284;28;20142;-47
2023/01/13 12:13:38;;;;;;;12.40;2.20;;;12.90;49.90;;;;;;4941502;28;20055;-45
2023/01/13 12:16:19;;;;;;;12.15;2.45;;;12.90;49.90;;;;;;4936578;28;20495;-49
2023/01/13 12:19:14;;;;;;;18.23;2.80;;;13.00;49.90;;;;;;4940800;28;20051;-46
2023/01/13 12:22:04;;;;;;;13.05;2.22;;;13.00;49.50;;;;;;4926755;28;20055;-49
2023/01/13 12:24:39;;;;;;;10.15;1.90;;;13.00;49.90;;;;;;4938219;28;20435;-48
2023/01/13 12:27:15;;;;;;;15.75;2.63;;;13.00;50.20;;;;;;4933614;28;20400;-47
2023/01/13 12:29:45;;;;;;;11.07;2.05;;;13.00;50.80;;;;;;4938523;28;20606;-46
2023/01/13 12:32:17;;;;;;;8.35;1.70;;;13.00;51.00;;;;;;4940624;28;20051;-49
2023/01/13 12:34:54;;;;;;;11.82;2.13;;;12.90;51.10;;;;;;4941896;28;20070;-48
2023/01/13 12:37:29;;;;;;;17.23;2.38;;;12.90;51.20;;;;;;4925583;28;20059;-49
2023/01/13 12:40:15;;;;;;;15.80;2.92;;;12.90;51.10;;;;;;4937824;28;20496;-51
2023/01/13 12:45:46;;;;;;;10.13;1.80;;;12.90;51.40;;;;;;4910180;28;20048;-47
2023/01/13 12:48:48;;;;;;;13.05;1.92;;;12.90;51.70;;;;;;4929901;28;20055;-50
2023/01/13 12:51:23;;;;;;;10.48;2.30;;;12.90;51.70;;;;;;4934069;28;20051;-49
2023/01/13 12:53:51;;;;;;;14.82;2.60;;;12.90;51.60;;;;;;4940919;28;20055;-50
2023/01/13 12:56:40;;;;;;;11.32;1.80;;;12.90;51.60;;;;;;4940686;28;20484;-55
2023/01/13 12:59:35;;;;;;;11.35;2.17;;;12.90;51.60;;;;;;4939430;28;20063;-50
2023/01/13 13:02:31;;;;;;;12.27;1.50;;;12.90;51.20;;;;;;4926483;28;20055;-51
2023/01/13 13:05:02;;;;;;;13.15;2.40;;;12.90;51.20;;;;;;4923972;28;20066;-47
2023/01/13 13:07:41;;;;;;;19.70;2.70;;;12.90;50.90;;;;;;4936094;28;21380;-49
2023/01/13 13:10:18;;;;;;;14.25;2.00;;;12.90;50.90;;;;;;4931284;28;20066;-49
2023/01/13 13:13:18;;;;;;;12.82;2.03;;;12.80;50.90;;;;;;4941198;28;20490;-46
2023/01/13 13:15:47;;;;;;;12.48;2.10;;;12.80;50.70;;;;;;4942999;28;20514;-56
2023/01/13 13:18:27;;;;;;;16.73;3.03;;;12.80;50.70;;;;;;4935506;28;20065;-50
2023/01/13 13:21:05;;;;;;;14.60;2.40;;;12.80;50.90;;;;;;4941005;28;20063;-50
2023/01/13 13:24:06;;;;;;;9.45;1.95;;;12.80;50.80;;;;;;4935644;28;20070;-48
2023/01/13 13:26:39;;;;;;;11.13;2.20;;;12.70;50.60;;;;;;4931272;28;20067;-50
2023/01/13 13:29:33;;;;;;;16.88;2.90;;;12.80;50.60;;;;;;4940834;28;20051;-46
2023/01/13 13:32:33;;;;;;;5.88;1.55;;;12.80;50.40;;;;;;4927705;28;20051;-48
2023/01/13 13:35:27;;;;;;;7.32;1.73;;;12.80;50.50;;;;;;4930403;28;20055;-49
2023/01/13 13:46:47;;;;;;;10.63;1.85;;;12.70;50.90;;;;;;4941481;28;20165;-49
2023/01/13 13:49:16;;;;;;;11.50;1.95;;;12.70;50.80;;;;;;4937876;28;20078;-49
2023/01/13 13:51:50;;;;;;;13.77;2.40;;;12.70;50.80;;;;;;4944442;28;20089;-50
2023/01/13 13:54:19;;;;;;;11.23;2.30;;;12.70;50.90;;;;;;4943357;28;20063;-48
2023/01/13 13:56:49;;;;;;;11.38;2.13;;;12.70;51.00;;;;;;4937821;28;20407;-50
2023/01/13 13:59:19;;;;;;;20.85;2.13;;;12.70;51.20;;;;;;4939489;28;20062;-50